sensor_id;sensor_type;location;lat;lon;timestamp;temperature;humidity
5846;DHT22;2949;50.778;7.094;2023-07-31T00:01:07;17.70;99.90
5846;DHT22;2949;50.778;7.094;2023-07-31T00:03:32;17.70;99.90
5846;DHT22;2949;50.778;7.094;2023-07-31T00:05:58;17.80;99.90
5846;DHT22;2949;50.778;7.094;2023-07-31T00:08:23;17.70;99.90
5846;DHT22;2949;50.778;7.094;2023-07-31T00:10:51;17.80;99.90
5846;DHT22;2949;50.778;7.094;2023-07-31T00:13:18;17.80;99.90
5846;DHT22;2949;50.778;7.094;2023-07-31T00:15:43;17.80;99.90
5846;DHT22;2949;50.778;7.094;2023-07-31T00:18:08;17.70;99.90
5846;DHT22;2949;50.778;7.094;2023-07-31T00:20:34;17.70;99.90
5846;DHT22;2949;50.778;7.094;2023-07-31T00:22:59;17.80;99.90
5846;DHT22;2949;50.778;7.094;2023-07-31T00:25:25;17.80;99.90
5846;DHT22;2949;50.778;7.094;2023-07-31T00:27:50;17.80;99.90
5846;DHT22;2949;50.778;7.094;2023-07-31T00:30:16;17.90;99.90
5846;DHT22;2949;50.778;7.094;2023-07-31T00:32:41;17.90;99.90
5846;DHT22;2949;50.778;7.094;2023-07-31T00:35:07;18.00;99.90
5846;DHT22;2949;50.778;7.094;2023-07-31T00:37:33;18.00;99.90
5846;DHT22;2949;50.778;7.094;2023-07-31T00:39:58;18.00;99.90
5846;DHT22;2949;50.778;7.094;2023-07-31T00:42:24;18.00;99.90
5846;DHT22;2949;50.778;7.094;2023-07-31T00:44:50;18.00;99.90
5846;DHT22;2949;50.778;7.094;2023-07-31T00:47:15;18.00;99.90
5846;DHT22;2949;50.778;7.094;2023-07-31T00:49:41;18.10;99.90
5846;DHT22;2949;50.778;7.094;2023-07-31T00:52:07;18.10;99.90
5846;DHT22;2949;50.778;7.094;2023-07-31T00:54:33;18.10;99.90
5846;DHT22;2949;50.778;7.094;2023-07-31T00:56:59;18.10;99.90
5846;DHT22;2949;50.778;7.094;2023-07-31T00:59:25;18.10;99.90
5846;DHT22;2949;50.778;7.094;2023-07-31T01:01:51;18.10;99.90
5846;DHT22;2949;50.778;7.094;2023-07-31T01:04:17;18.10;99.90
5846;DHT22;2949;50.778;7.094;2023-07-31T01:11:48;18.10;99.90
5846;DHT22;2949;50.778;7.094;2023-07-31T01:14:14;18.10;99.90
5846;DHT22;2949;50.778;7.094;2023-07-31T01:16:39;18.10;99.90
5846;DHT22;2949;50.778;7.094;2023-07-31T01:19:06;18.00;99.90
5846;DHT22;2949;50.778;7.094;2023-07-31T01:24:34;18.00;99.90
5846;DHT22;2949;50.778;7.094;2023-07-31T01:27:12;18.00;99.90
5846;DHT22;2949;50.778;7.094;2023-07-31T01:30:15;18.00;99.90
5846;DHT22;2949;50.778;7.094;2023-07-31T01:32:42;18.00;99.90
5846;DHT22;2949;50.778;7.094;2023-07-31T01:35:09;17.90;99.90
5846;DHT22;2949;50.778;7.094;2023-07-31T01:37:35;17.80;99.90
5846;DHT22;2949;50.778;7.094;2023-07-31T01:40:00;17.70;99.90
5846;DHT22;2949;50.778;7.094;2023-07-31T01:42:26;17.60;99.90
5846;DHT22;2949;50.778;7.094;2023-07-31T01:44:52;17.50;99.90
5846;DHT22;2949;50.778;7.094;2023-07-31T01:47:17;17.40;99.90
5846;DHT22;2949;50.778;7.094;2023-07-31T01:49:43;17.30;99.90
5846;DHT22;2949;50.778;7.094;2023-07-31T01:52:08;17.20;99.90
5846;DHT22;2949;50.778;7.094;2023-07-31T01:54:34;17.10;99.90
5846;DHT22;2949;50.778;7.094;2023-07-31T01:56:59;17.10;99.90
5846;DHT22;2949;50.778;7.094;2023-07-31T01:59:25;17.10;99.90
5846;DHT22;2949;50.778;7.094;2023-07-31T02:01:50;17.10;99.90
5846;DHT22;2949;50.778;7.094;2023-07-31T02:04:16;17.20;99.90
5846;DHT22;2949;50.778;7.094;2023-07-31T02:06:41;17.20;99.90
5846;DHT22;2949;50.778;7.094;2023-07-31T02:09:07;17.20;99.90
5846;DHT22;2949;50.778;7.094;2023-07-31T02:11:32;17.30;99.90
5846;DHT22;2949;50.778;7.094;2023-07-31T02:13:58;17.30;99.90
5846;DHT22;2949;50.778;7.094;2023-07-31T02:16:23;17.40;99.90
5846;DHT22;2949;50.778;7.094;2023-07-31T02:18:49;17.40;99.90
5846;DHT22;2949;50.778;7.094;2023-07-31T02:21:14;17.40;99.90
5846;DHT22;2949;50.778;7.094;2023-07-31T02:23:40;17.40;99.90
5846;DHT22;2949;50.778;7.094;2023-07-31T02:26:05;17.40;99.90
5846;DHT22;2949;50.778;7.094;2023-07-31T02:28:31;17.40;99.90
5846;DHT22;2949;50.778;7.094;2023-07-31T02:30:56;17.40;99.90
5846;DHT22;2949;50.778;7.094;2023-07-31T02:33:22;17.40;99.90
5846;DHT22;2949;50.778;7.094;2023-07-31T02:35:47;17.40;99.90
5846;DHT22;2949;50.778;7.094;2023-07-31T02:38:13;17.40;99.90
5846;DHT22;2949;50.778;7.094;2023-07-31T02:40:42;17.40;99.90
5846;DHT22;2949;50.778;7.094;2023-07-31T02:43:08;17.40;99.90
5846;DHT22;2949;50.778;7.094;2023-07-31T02:45:33;17.50;99.90
5846;DHT22;2949;50.778;7.094;2023-07-31T02:47:59;17.50;99.90
5846;DHT22;2949;50.778;7.094;2023-07-31T02:50:25;17.60;99.90
5846;DHT22;2949;50.778;7.094;2023-07-31T02:52:50;17.60;99.90
5846;DHT22;2949;50.778;7.094;2023-07-31T02:55:16;17.60;99.90
5846;DHT22;2949;50.778;7.094;2023-07-31T02:57:41;17.60;99.90
5846;DHT22;2949;50.778;7.094;2023-07-31T03:00:07;17.60;99.90
5846;DHT22;2949;50.778;7.094;2023-07-31T03:02:33;17.60;99.90
5846;DHT22;2949;50.778;7.094;2023-07-31T03:04:58;17.60;99.90
5846;DHT22;2949;50.778;7.094;2023-07-31T03:07:24;17.60;99.90
5846;DHT22;2949;50.778;7.094;2023-07-31T03:09:50;17.60;99.90
5846;DHT22;2949;50.778;7.094;2023-07-31T03:12:15;17.60;99.90
5846;DHT22;2949;50.778;7.094;2023-07-31T03:14:41;17.60;99.90
5846;DHT22;2949;50.778;7.094;2023-07-31T03:17:06;17.60;99.90
5846;DHT22;2949;50.778;7.094;2023-07-31T03:19:32;17.60;99.90
5846;DHT22;2949;50.778;7.094;2023-07-31T03:22:01;17.60;99.90
5846;DHT22;2949;50.778;7.094;2023-07-31T03:24:28;17.60;99.90
5846;DHT22;2949;50.778;7.094;2023-07-31T03:26:53;17.60;99.90
5846;DHT22;2949;50.778;7.094;2023-07-31T03:29:19;17.60;99.90
5846;DHT22;2949;50.778;7.094;2023-07-31T03:31:44;17.70;99.90
5846;DHT22;2949;50.778;7.094;2023-07-31T03:34:10;17.70;99.90
5846;DHT22;2949;50.778;7.094;2023-07-31T03:36:35;17.70;99.90
5846;DHT22;2949;50.778;7.094;2023-07-31T03:39:01;17.70;99.90
5846;DHT22;2949;50.778;7.094;2023-07-31T03:41:26;17.70;99.90
5846;DHT22;2949;50.778;7.094;2023-07-31T03:43:52;17.80;99.90
5846;DHT22;2949;50.778;7.094;2023-07-31T03:46:17;17.80;99.90
5846;DHT22;2949;50.778;7.094;2023-07-31T03:48:43;17.80;99.90
5846;DHT22;2949;50.778;7.094;2023-07-31T03:51:08;17.70;99.90
5846;DHT22;2949;50.778;7.094;2023-07-31T03:53:34;17.70;99.90
5846;DHT22;2949;50.778;7.094;2023-07-31T03:55:59;17.70;99.90
5846;DHT22;2949;50.778;7.094;2023-07-31T03:58:25;17.70;99.90
5846;DHT22;2949;50.778;7.094;2023-07-31T04:00:50;17.70;99.90
5846;DHT22;2949;50.778;7.094;2023-07-31T04:03:16;17.70;99.90
5846;DHT22;2949;50.778;7.094;2023-07-31T04:05:41;17.70;99.90
5846;DHT22;2949;50.778;7.094;2023-07-31T04:08:07;17.70;99.90
5846;DHT22;2949;50.778;7.094;2023-07-31T04:10:32;17.70;99.90
5846;DHT22;2949;50.778;7.094;2023-07-31T04:12:59;17.70;99.90
5846;DHT22;2949;50.778;7.094;2023-07-31T04:15:25;17.70;99.90
5846;DHT22;2949;50.778;7.094;2023-07-31T04:17:51;17.70;99.90
5846;DHT22;2949;50.778;7.094;2023-07-31T04:20:17;17.70;99.90
5846;DHT22;2949;50.778;7.094;2023-07-31T04:22:42;17.80;99.90
5846;DHT22;2949;50.778;7.094;2023-07-31T04:25:08;17.70;99.90
5846;DHT22;2949;50.778;7.094;2023-07-31T04:27:33;17.70;99.90
5846;DHT22;2949;50.778;7.094;2023-07-31T04:29:59;17.70;99.90
5846;DHT22;2949;50.778;7.094;2023-07-31T04:32:24;17.80;99.90
5846;DHT22;2949;50.778;7.094;2023-07-31T04:34:50;17.80;99.90
5846;DHT22;2949;50.778;7.094;2023-07-31T04:37:15;17.80;99.90
5846;DHT22;2949;50.778;7.094;2023-07-31T04:39:41;17.80;99.90
5846;DHT22;2949;50.778;7.094;2023-07-31T04:42:07;17.90;99.90
5846;DHT22;2949;50.778;7.094;2023-07-31T04:44:32;17.90;99.90
5846;DHT22;2949;50.778;7.094;2023-07-31T04:46:58;17.90;99.90
5846;DHT22;2949;50.778;7.094;2023-07-31T04:49:23;18.00;99.90
5846;DHT22;2949;50.778;7.094;2023-07-31T04:51:49;18.00;99.90
5846;DHT22;2949;50.778;7.094;2023-07-31T04:54:14;18.10;99.90
5846;DHT22;2949;50.778;7.094;2023-07-31T04:56:42;18.20;99.90
5846;DHT22;2949;50.778;7.094;2023-07-31T04:59:08;18.20;99.90
5846;DHT22;2949;50.778;7.094;2023-07-31T05:01:34;18.30;99.90
5846;DHT22;2949;50.778;7.094;2023-07-31T05:03:59;18.40;99.90
5846;DHT22;2949;50.778;7.094;2023-07-31T05:06:25;18.50;99.90
5846;DHT22;2949;50.778;7.094;2023-07-31T05:08:50;18.50;99.90
5846;DHT22;2949;50.778;7.094;2023-07-31T05:11:16;18.60;99.90
5846;DHT22;2949;50.778;7.094;2023-07-31T05:13:41;18.70;99.90
5846;DHT22;2949;50.778;7.094;2023-07-31T05:16:07;18.70;99.90
5846;DHT22;2949;50.778;7.094;2023-07-31T05:18:32;18.70;99.90
5846;DHT22;2949;50.778;7.094;2023-07-31T05:20:58;18.70;99.90
5846;DHT22;2949;50.778;7.094;2023-07-31T05:23:23;18.70;99.90
5846;DHT22;2949;50.778;7.094;2023-07-31T05:25:49;18.80;99.90
5846;DHT22;2949;50.778;7.094;2023-07-31T05:28:14;18.90;99.90
5846;DHT22;2949;50.778;7.094;2023-07-31T05:30:40;19.10;99.90
5846;DHT22;2949;50.778;7.094;2023-07-31T05:33:05;19.20;99.90
5846;DHT22;2949;50.778;7.094;2023-07-31T05:35:31;19.30;99.90
5846;DHT22;2949;50.778;7.094;2023-07-31T05:37:56;19.40;99.90
5846;DHT22;2949;50.778;7.094;2023-07-31T05:40:22;19.40;99.90
5846;DHT22;2949;50.778;7.094;2023-07-31T05:42:47;19.40;99.90
5846;DHT22;2949;50.778;7.094;2023-07-31T05:45:13;19.40;99.90
5846;DHT22;2949;50.778;7.094;2023-07-31T05:47:39;19.50;99.90
5846;DHT22;2949;50.778;7.094;2023-07-31T05:50:05;19.40;99.90
5846;DHT22;2949;50.778;7.094;2023-07-31T05:52:30;19.40;99.90
5846;DHT22;2949;50.778;7.094;2023-07-31T05:54:56;19.40;99.90
5846;DHT22;2949;50.778;7.094;2023-07-31T05:57:22;19.40;99.90
5846;DHT22;2949;50.778;7.094;2023-07-31T05:59:47;19.40;99.90
5846;DHT22;2949;50.778;7.094;2023-07-31T06:02:13;19.40;99.90
5846;DHT22;2949;50.778;7.094;2023-07-31T06:04:38;19.30;99.90
5846;DHT22;2949;50.778;7.094;2023-07-31T06:07:04;19.30;99.90
5846;DHT22;2949;50.778;7.094;2023-07-31T06:09:30;19.20;99.90
5846;DHT22;2949;50.778;7.094;2023-07-31T06:11:55;19.20;99.90
5846;DHT22;2949;50.778;7.094;2023-07-31T06:14:21;19.10;99.90
5846;DHT22;2949;50.778;7.094;2023-07-31T06:16:46;19.10;99.90
5846;DHT22;2949;50.778;7.094;2023-07-31T06:19:12;19.00;99.90
5846;DHT22;2949;50.778;7.094;2023-07-31T06:21:38;19.00;99.90
5846;DHT22;2949;50.778;7.094;2023-07-31T06:24:05;18.90;99.90
5846;DHT22;2949;50.778;7.094;2023-07-31T06:26:31;18.80;99.90
5846;DHT22;2949;50.778;7.094;2023-07-31T06:28:56;18.70;99.90
5846;DHT22;2949;50.778;7.094;2023-07-31T06:31:22;18.60;99.90
5846;DHT22;2949;50.778;7.094;2023-07-31T06:33:51;18.50;99.90
5846;DHT22;2949;50.778;7.094;2023-07-31T06:36:17;18.40;99.90
5846;DHT22;2949;50.778;7.094;2023-07-31T06:38:43;18.30;99.90
5846;DHT22;2949;50.778;7.094;2023-07-31T06:41:09;18.30;99.90
5846;DHT22;2949;50.778;7.094;2023-07-31T06:43:36;18.30;99.90
5846;DHT22;2949;50.778;7.094;2023-07-31T06:46:05;18.30;99.90
5846;DHT22;2949;50.778;7.094;2023-07-31T06:48:32;18.40;99.90
5846;DHT22;2949;50.778;7.094;2023-07-31T06:50:58;18.40;99.90
5846;DHT22;2949;50.778;7.094;2023-07-31T06:53:23;18.40;99.90
5846;DHT22;2949;50.778;7.094;2023-07-31T06:55:49;18.40;99.90
5846;DHT22;2949;50.778;7.094;2023-07-31T06:58:17;18.40;99.90
5846;DHT22;2949;50.778;7.094;2023-07-31T07:00:42;18.50;99.90
5846;DHT22;2949;50.778;7.094;2023-07-31T07:03:08;18.60;99.90
5846;DHT22;2949;50.778;7.094;2023-07-31T07:05:33;18.70;99.90
5846;DHT22;2949;50.778;7.094;2023-07-31T07:07:59;19.00;99.90
5846;DHT22;2949;50.778;7.094;2023-07-31T07:10:24;19.30;99.90
5846;DHT22;2949;50.778;7.094;2023-07-31T07:12:50;19.80;99.90
5846;DHT22;2949;50.778;7.094;2023-07-31T07:15:15;21.20;99.90
5846;DHT22;2949;50.778;7.094;2023-07-31T07:17:41;22.40;99.90
5846;DHT22;2949;50.778;7.094;2023-07-31T07:20:07;23.20;99.90
5846;DHT22;2949;50.778;7.094;2023-07-31T07:22:33;23.30;99.90
5846;DHT22;2949;50.778;7.094;2023-07-31T07:24:59;23.20;99.90
5846;DHT22;2949;50.778;7.094;2023-07-31T07:27:24;23.00;99.90
5846;DHT22;2949;50.778;7.094;2023-07-31T07:29:51;22.60;99.90
5846;DHT22;2949;50.778;7.094;2023-07-31T07:32:17;22.20;99.90
5846;DHT22;2949;50.778;7.094;2023-07-31T07:34:43;21.70;99.90
5846;DHT22;2949;50.778;7.094;2023-07-31T07:37:09;21.30;99.90
5846;DHT22;2949;50.778;7.094;2023-07-31T07:39:34;20.90;99.90
5846;DHT22;2949;50.778;7.094;2023-07-31T07:42:00;20.50;99.90
5846;DHT22;2949;50.778;7.094;2023-07-31T07:44:26;20.30;99.90
5846;DHT22;2949;50.778;7.094;2023-07-31T07:46:52;20.10;99.90
5846;DHT22;2949;50.778;7.094;2023-07-31T07:49:17;19.80;99.90
5846;DHT22;2949;50.778;7.094;2023-07-31T07:51:43;19.60;99.90
5846;DHT22;2949;50.778;7.094;2023-07-31T07:54:08;19.40;99.90
5846;DHT22;2949;50.778;7.094;2023-07-31T07:56:34;19.30;99.90
5846;DHT22;2949;50.778;7.094;2023-07-31T07:59:01;19.20;99.90
5846;DHT22;2949;50.778;7.094;2023-07-31T08:01:27;19.10;99.90
5846;DHT22;2949;50.778;7.094;2023-07-31T08:03:52;19.10;99.90
5846;DHT22;2949;50.778;7.094;2023-07-31T08:06:18;19.00;99.90
5846;DHT22;2949;50.778;7.094;2023-07-31T08:08:43;18.90;99.90
5846;DHT22;2949;50.778;7.094;2023-07-31T08:11:09;18.90;99.90
5846;DHT22;2949;50.778;7.094;2023-07-31T08:13:34;18.90;99.90
5846;DHT22;2949;50.778;7.094;2023-07-31T08:16:02;18.90;99.90
5846;DHT22;2949;50.778;7.094;2023-07-31T08:18:28;18.90;99.90
5846;DHT22;2949;50.778;7.094;2023-07-31T08:20:53;18.80;99.90
5846;DHT22;2949;50.778;7.094;2023-07-31T08:23:19;18.80;99.90
5846;DHT22;2949;50.778;7.094;2023-07-31T08:25:45;18.90;99.90
5846;DHT22;2949;50.778;7.094;2023-07-31T08:28:10;18.90;99.90
5846;DHT22;2949;50.778;7.094;2023-07-31T08:30:36;19.00;99.90
5846;DHT22;2949;50.778;7.094;2023-07-31T08:33:01;19.10;99.90
5846;DHT22;2949;50.778;7.094;2023-07-31T08:35:28;19.20;99.90
5846;DHT22;2949;50.778;7.094;2023-07-31T08:37:54;19.30;99.90
5846;DHT22;2949;50.778;7.094;2023-07-31T08:40:19;19.30;99.90
5846;DHT22;2949;50.778;7.094;2023-07-31T08:42:49;19.30;99.90
5846;DHT22;2949;50.778;7.094;2023-07-31T08:45:19;19.20;99.90
5846;DHT22;2949;50.778;7.094;2023-07-31T08:47:46;19.20;99.90
5846;DHT22;2949;50.778;7.094;2023-07-31T08:50:13;19.20;99.90
5846;DHT22;2949;50.778;7.094;2023-07-31T08:52:39;19.20;99.90
5846;DHT22;2949;50.778;7.094;2023-07-31T08:55:06;19.10;99.90
5846;DHT22;2949;50.778;7.094;2023-07-31T08:57:33;19.00;99.90
5846;DHT22;2949;50.778;7.094;2023-07-31T09:00:00;19.00;99.90
5846;DHT22;2949;50.778;7.094;2023-07-31T09:02:31;19.00;99.90
5846;DHT22;2949;50.778;7.094;2023-07-31T09:04:59;19.00;99.90
5846;DHT22;2949;50.778;7.094;2023-07-31T09:07:24;18.90;99.90
5846;DHT22;2949;50.778;7.094;2023-07-31T09:09:50;18.90;99.90
5846;DHT22;2949;50.778;7.094;2023-07-31T09:12:16;18.80;99.90
5846;DHT22;2949;50.778;7.094;2023-07-31T09:14:43;18.80;99.90
5846;DHT22;2949;50.778;7.094;2023-07-31T09:17:10;18.80;99.90
5846;DHT22;2949;50.778;7.094;2023-07-31T09:19:36;19.00;99.90
5846;DHT22;2949;50.778;7.094;2023-07-31T09:22:06;19.20;99.90
5846;DHT22;2949;50.778;7.094;2023-07-31T09:24:33;19.10;99.90
5846;DHT22;2949;50.778;7.094;2023-07-31T09:27:00;19.20;99.90
5846;DHT22;2949;50.778;7.094;2023-07-31T09:29:27;19.20;99.90
5846;DHT22;2949;50.778;7.094;2023-07-31T09:31:53;19.10;99.90
5846;DHT22;2949;50.778;7.094;2023-07-31T09:34:20;19.10;99.90
5846;DHT22;2949;50.778;7.094;2023-07-31T09:36:48;19.10;99.90
5846;DHT22;2949;50.778;7.094;2023-07-31T09:39:15;19.20;99.90
5846;DHT22;2949;50.778;7.094;2023-07-31T09:41:47;19.20;99.90
5846;DHT22;2949;50.778;7.094;2023-07-31T09:44:12;19.30;99.90
5846;DHT22;2949;50.778;7.094;2023-07-31T09:46:38;19.20;99.90
5846;DHT22;2949;50.778;7.094;2023-07-31T09:49:11;19.20;99.90
5846;DHT22;2949;50.778;7.094;2023-07-31T09:51:39;19.20;99.90
5846;DHT22;2949;50.778;7.094;2023-07-31T09:54:10;19.30;99.90
5846;DHT22;2949;50.778;7.094;2023-07-31T09:56:47;19.40;99.90
5846;DHT22;2949;50.778;7.094;2023-07-31T09:59:15;19.50;99.90
5846;DHT22;2949;50.778;7.094;2023-07-31T10:01:42;19.60;99.90
5846;DHT22;2949;50.778;7.094;2023-07-31T10:04:09;19.80;99.90
5846;DHT22;2949;50.778;7.094;2023-07-31T10:06:36;19.80;99.90
5846;DHT22;2949;50.778;7.094;2023-07-31T10:09:06;19.90;99.90
5846;DHT22;2949;50.778;7.094;2023-07-31T10:11:44;20.10;99.90
5846;DHT22;2949;50.778;7.094;2023-07-31T10:14:10;20.10;99.90
5846;DHT22;2949;50.778;7.094;2023-07-31T10:16:37;20.30;99.90
5846;DHT22;2949;50.778;7.094;2023-07-31T10:19:03;20.40;99.90
5846;DHT22;2949;50.778;7.094;2023-07-31T10:21:31;20.60;99.90
5846;DHT22;2949;50.778;7.094;2023-07-31T10:24:01;20.90;99.90
5846;DHT22;2949;50.778;7.094;2023-07-31T10:26:27;21.00;99.90
5846;DHT22;2949;50.778;7.094;2023-07-31T10:28:54;21.10;99.90
5846;DHT22;2949;50.778;7.094;2023-07-31T10:31:20;21.00;99.90
5846;DHT22;2949;50.778;7.094;2023-07-31T10:33:45;21.20;99.90
5846;DHT22;2949;50.778;7.094;2023-07-31T10:36:19;21.40;99.90
5846;DHT22;2949;50.778;7.094;2023-07-31T10:38:45;21.80;99.90
5846;DHT22;2949;50.778;7.094;2023-07-31T10:41:11;22.60;99.90
5846;DHT22;2949;50.778;7.094;2023-07-31T10:43:37;22.80;99.90
5846;DHT22;2949;50.778;7.094;2023-07-31T10:46:16;23.00;99.90
5846;DHT22;2949;50.778;7.094;2023-07-31T10:48:42;23.30;99.90
5846;DHT22;2949;50.778;7.094;2023-07-31T10:51:08;23.30;99.90
5846;DHT22;2949;50.778;7.094;2023-07-31T10:53:38;23.50;99.90
5846;DHT22;2949;50.778;7.094;2023-07-31T10:56:04;23.50;99.90
5846;DHT22;2949;50.778;7.094;2023-07-31T10:58:30;23.20;99.90
5846;DHT22;2949;50.778;7.094;2023-07-31T11:01:04;22.80;99.90
5846;DHT22;2949;50.778;7.094;2023-07-31T11:03:45;22.60;99.90
5846;DHT22;2949;50.778;7.094;2023-07-31T11:06:11;22.50;99.90
5846;DHT22;2949;50.778;7.094;2023-07-31T11:08:42;22.50;99.90
5846;DHT22;2949;50.778;7.094;2023-07-31T11:11:09;22.40;99.90
5846;DHT22;2949;50.778;7.094;2023-07-31T11:13:44;22.30;99.90
5846;DHT22;2949;50.778;7.094;2023-07-31T11:16:12;22.10;99.90
5846;DHT22;2949;50.778;7.094;2023-07-31T11:18:43;21.90;99.90
5846;DHT22;2949;50.778;7.094;2023-07-31T11:21:20;21.80;99.90
5846;DHT22;2949;50.778;7.094;2023-07-31T11:23:47;21.70;99.90
5846;DHT22;2949;50.778;7.094;2023-07-31T11:26:12;21.60;99.90
5846;DHT22;2949;50.778;7.094;2023-07-31T11:28:38;21.60;99.90
5846;DHT22;2949;50.778;7.094;2023-07-31T11:31:05;21.60;99.90
5846;DHT22;2949;50.778;7.094;2023-07-31T11:33:33;21.70;99.90
5846;DHT22;2949;50.778;7.094;2023-07-31T11:35:59;21.60;99.90
5846;DHT22;2949;50.778;7.094;2023-07-31T11:38:30;21.60;99.90
5846;DHT22;2949;50.778;7.094;2023-07-31T11:40:57;21.30;99.90
5846;DHT22;2949;50.778;7.094;2023-07-31T11:43:23;21.10;99.90
5846;DHT22;2949;50.778;7.094;2023-07-31T11:45:54;20.90;99.90
5846;DHT22;2949;50.778;7.094;2023-07-31T11:48:31;20.80;99.90
5846;DHT22;2949;50.778;7.094;2023-07-31T11:51:01;21.00;99.90
5846;DHT22;2949;50.778;7.094;2023-07-31T11:53:45;21.50;99.90
5846;DHT22;2949;50.778;7.094;2023-07-31T11:56:13;22.20;99.90
5846;DHT22;2949;50.778;7.094;2023-07-31T11:58:39;23.00;99.90
5846;DHT22;2949;50.778;7.094;2023-07-31T12:01:06;23.40;99.90
5846;DHT22;2949;50.778;7.094;2023-07-31T12:03:32;23.90;99.90
5846;DHT22;2949;50.778;7.094;2023-07-31T12:05:59;24.20;99.90
5846;DHT22;2949;50.778;7.094;2023-07-31T12:08:25;24.30;99.90
5846;DHT22;2949;50.778;7.094;2023-07-31T12:10:54;24.20;99.90
5846;DHT22;2949;50.778;7.094;2023-07-31T12:13:27;24.30;99.90
5846;DHT22;2949;50.778;7.094;2023-07-31T12:15:57;24.50;99.90
5846;DHT22;2949;50.778;7.094;2023-07-31T12:18:24;24.70;99.90
5846;DHT22;2949;50.778;7.094;2023-07-31T12:20:58;24.60;99.90
5846;DHT22;2949;50.778;7.094;2023-07-31T12:23:29;24.40;99.90
5846;DHT22;2949;50.778;7.094;2023-07-31T12:26:15;24.60;99.90
5846;DHT22;2949;50.778;7.094;2023-07-31T12:28:48;24.80;99.90
5846;DHT22;2949;50.778;7.094;2023-07-31T12:31:21;24.70;99.90
5846;DHT22;2949;50.778;7.094;2023-07-31T12:33:49;24.40;99.90
5846;DHT22;2949;50.778;7.094;2023-07-31T12:36:18;24.00;99.90
5846;DHT22;2949;50.778;7.094;2023-07-31T12:38:44;23.70;99.90
5846;DHT22;2949;50.778;7.094;2023-07-31T12:41:10;23.40;99.90
5846;DHT22;2949;50.778;7.094;2023-07-31T12:43:37;23.10;99.90
5846;DHT22;2949;50.778;7.094;2023-07-31T12:46:03;22.90;99.90
5846;DHT22;2949;50.778;7.094;2023-07-31T12:48:29;22.70;99.90
5846;DHT22;2949;50.778;7.094;2023-07-31T12:50:55;22.60;99.90
5846;DHT22;2949;50.778;7.094;2023-07-31T12:53:20;22.50;99.90
5846;DHT22;2949;50.778;7.094;2023-07-31T12:55:46;22.50;99.90
5846;DHT22;2949;50.778;7.094;2023-07-31T12:58:12;22.70;99.90
5846;DHT22;2949;50.778;7.094;2023-07-31T13:00:37;22.80;99.90
5846;DHT22;2949;50.778;7.094;2023-07-31T13:03:03;23.10;99.90
5846;DHT22;2949;50.778;7.094;2023-07-31T13:05:29;23.40;99.90
5846;DHT22;2949;50.778;7.094;2023-07-31T13:07:55;23.90;99.90
5846;DHT22;2949;50.778;7.094;2023-07-31T13:10:21;24.20;99.90
5846;DHT22;2949;50.778;7.094;2023-07-31T13:12:47;24.30;99.90
5846;DHT22;2949;50.778;7.094;2023-07-31T13:15:12;24.30;99.90
5846;DHT22;2949;50.778;7.094;2023-07-31T13:17:38;24.10;99.90
5846;DHT22;2949;50.778;7.094;2023-07-31T13:20:04;24.00;99.90
5846;DHT22;2949;50.778;7.094;2023-07-31T13:22:30;23.90;99.90
5846;DHT22;2949;50.778;7.094;2023-07-31T13:24:55;23.70;99.90
5846;DHT22;2949;50.778;7.094;2023-07-31T13:27:21;23.50;99.90
5846;DHT22;2949;50.778;7.094;2023-07-31T13:29:51;23.30;99.90
5846;DHT22;2949;50.778;7.094;2023-07-31T13:32:17;23.10;99.90
5846;DHT22;2949;50.778;7.094;2023-07-31T13:34:44;22.90;99.90
5846;DHT22;2949;50.778;7.094;2023-07-31T13:37:09;22.90;99.90
5846;DHT22;2949;50.778;7.094;2023-07-31T13:39:35;23.20;99.90
5846;DHT22;2949;50.778;7.094;2023-07-31T13:42:02;23.50;99.90
5846;DHT22;2949;50.778;7.094;2023-07-31T13:44:28;23.90;99.90
5846;DHT22;2949;50.778;7.094;2023-07-31T13:46:54;24.00;99.90
5846;DHT22;2949;50.778;7.094;2023-07-31T13:49:19;23.90;99.90
5846;DHT22;2949;50.778;7.094;2023-07-31T13:51:45;23.80;99.90
5846;DHT22;2949;50.778;7.094;2023-07-31T13:54:11;23.70;99.90
5846;DHT22;2949;50.778;7.094;2023-07-31T13:56:37;23.80;99.90
5846;DHT22;2949;50.778;7.094;2023-07-31T13:59:03;23.90;99.90
5846;DHT22;2949;50.778;7.094;2023-07-31T14:01:29;24.10;99.90
5846;DHT22;2949;50.778;7.094;2023-07-31T14:03:55;24.00;99.90
5846;DHT22;2949;50.778;7.094;2023-07-31T14:06:20;24.00;99.90
5846;DHT22;2949;50.778;7.094;2023-07-31T14:08:46;24.20;99.90
5846;DHT22;2949;50.778;7.094;2023-07-31T14:11:11;24.40;99.90
5846;DHT22;2949;50.778;7.094;2023-07-31T14:13:37;24.30;99.90
5846;DHT22;2949;50.778;7.094;2023-07-31T14:16:03;24.30;99.90
5846;DHT22;2949;50.778;7.094;2023-07-31T14:18:28;24.20;99.90
5846;DHT22;2949;50.778;7.094;2023-07-31T14:20:54;24.10;99.90
5846;DHT22;2949;50.778;7.094;2023-07-31T14:23:19;23.80;99.90
5846;DHT22;2949;50.778;7.094;2023-07-31T14:25:46;23.40;99.90
5846;DHT22;2949;50.778;7.094;2023-07-31T14:28:11;23.20;99.90
5846;DHT22;2949;50.778;7.094;2023-07-31T14:30:37;23.10;99.90
5846;DHT22;2949;50.778;7.094;2023-07-31T14:33:03;22.90;99.90
5846;DHT22;2949;50.778;7.094;2023-07-31T14:35:28;22.80;99.90
5846;DHT22;2949;50.778;7.094;2023-07-31T14:37:54;22.60;99.90
5846;DHT22;2949;50.778;7.094;2023-07-31T14:40:20;22.50;99.90
5846;DHT22;2949;50.778;7.094;2023-07-31T14:42:45;22.30;99.90
5846;DHT22;2949;50.778;7.094;2023-07-31T14:45:11;22.20;99.90
5846;DHT22;2949;50.778;7.094;2023-07-31T14:47:36;22.20;99.90
5846;DHT22;2949;50.778;7.094;2023-07-31T14:50:03;22.10;99.90
5846;DHT22;2949;50.778;7.094;2023-07-31T14:52:29;22.00;99.90
5846;DHT22;2949;50.778;7.094;2023-07-31T14:54:54;22.00;99.90
5846;DHT22;2949;50.778;7.094;2023-07-31T14:57:20;22.00;99.90
5846;DHT22;2949;50.778;7.094;2023-07-31T14:59:46;22.00;99.90
5846;DHT22;2949;50.778;7.094;2023-07-31T15:02:12;21.90;99.90
5846;DHT22;2949;50.778;7.094;2023-07-31T15:04:38;22.00;99.90
5846;DHT22;2949;50.778;7.094;2023-07-31T15:07:04;22.00;99.90
5846;DHT22;2949;50.778;7.094;2023-07-31T15:09:30;22.00;99.90
5846;DHT22;2949;50.778;7.094;2023-07-31T15:11:56;22.00;99.90
5846;DHT22;2949;50.778;7.094;2023-07-31T15:14:22;21.80;99.90
5846;DHT22;2949;50.778;7.094;2023-07-31T15:16:47;21.60;99.90
5846;DHT22;2949;50.778;7.094;2023-07-31T15:19:13;21.50;99.90
5846;DHT22;2949;50.778;7.094;2023-07-31T15:21:39;21.40;99.90
5846;DHT22;2949;50.778;7.094;2023-07-31T15:24:05;21.30;99.90
5846;DHT22;2949;50.778;7.094;2023-07-31T15:26:30;21.30;99.90
5846;DHT22;2949;50.778;7.094;2023-07-31T15:29:06;21.30;99.90
5846;DHT22;2949;50.778;7.094;2023-07-31T15:31:41;21.30;99.90
5846;DHT22;2949;50.778;7.094;2023-07-31T15:34:06;21.40;99.90
5846;DHT22;2949;50.778;7.094;2023-07-31T15:36:32;21.50;99.90
5846;DHT22;2949;50.778;7.094;2023-07-31T15:38:58;21.60;99.90
5846;DHT22;2949;50.778;7.094;2023-07-31T15:41:24;21.80;99.90
5846;DHT22;2949;50.778;7.094;2023-07-31T15:43:51;21.80;99.90
5846;DHT22;2949;50.778;7.094;2023-07-31T15:46:16;21.80;99.90
5846;DHT22;2949;50.778;7.094;2023-07-31T15:48:42;21.80;99.90
5846;DHT22;2949;50.778;7.094;2023-07-31T15:51:08;21.80;99.90
5846;DHT22;2949;50.778;7.094;2023-07-31T15:53:33;21.90;99.90
5846;DHT22;2949;50.778;7.094;2023-07-31T15:55:59;21.90;99.90
5846;DHT22;2949;50.778;7.094;2023-07-31T15:58:24;21.90;99.90
5846;DHT22;2949;50.778;7.094;2023-07-31T16:00:50;21.60;99.90
5846;DHT22;2949;50.778;7.094;2023-07-31T16:03:15;21.40;99.90
5846;DHT22;2949;50.778;7.094;2023-07-31T16:05:41;21.30;99.90